Time;durP1;ratioP1;P1;durP2;ratioP2;P2;SDS_P1;SDS_P2;PMS_P1;PMS_P2;Temp;Humidity;BMP_temperature;BMP_pressure;BME280_temperature;BME280_humidity;BME280_pressure;Samples;Min_cycle;Max_cycle;Signal;HPM_P1;HPM_P2
2021/04/20 00:00:38;;;;;;;14.32;12.57;;;4.10;99.90;;;;;;464576;256;27491;-72
2021/04/20 00:02:39;;;;;;;13.62;11.00;;;4.10;99.90;;;;;;464638;256;27487;-73
2021/04/20 00:04:41;;;;;;;16.33;12.40;;;4.10;99.90;;;;;;464670;256;28028;-73
2021/04/20 00:06:42;;;;;;;14.90;11.30;;;4.00;99.90;;;;;;464688;256;27543;-72
2021/04/20 00:08:43;;;;;;;15.02;11.88;;;4.00;99.90;;;;;;464733;256;27427;-73
2021/04/20 00:10:44;;;;;;;15.68;11.75;;;4.10;99.90;;;;;;464690;256;27451;-72
2021/04/20 00:12:47;;;;;;;19.33;13.57;;;4.10;99.90;;;;;;464596;256;27458;-73
2021/04/20 00:14:47;;;;;;;14.35;11.48;;;4.10;99.90;;;;;;464558;256;27463;-73
2021/04/20 00:16:48;;;;;;;17.58;13.20;;;4.10;99.90;;;;;;464615;256;27909;-72
2021/04/20 00:18:50;;;;;;;17.52;13.27;;;4.10;99.90;;;;;;464626;256;28024;-73
2021/04/20 00:20:51;;;;;;;18.42;13.73;;;4.20;99.90;;;;;;464692;256;27415;-72
2021/04/20 00:22:52;;;;;;;17.90;12.30;;;4.20;99.90;;;;;;464563;256;27556;-73
2021/04/20 00:24:53;;;;;;;17.48;12.65;;;4.10;99.90;;;;;;464644;256;27541;-73
2021/04/20 00:26:55;;;;;;;15.82;12.23;;;4.10;99.90;;;;;;464648;256;27420;-72
2021/04/20 00:28:56;;;;;;;16.98;13.07;;;4.10;99.90;;;;;;464666;256;27907;-72
2021/04/20 00:30:57;;;;;;;15.65;12.48;;;4.00;99.90;;;;;;464527;256;27877;-73
2021/04/20 00:32:58;;;;;;;15.25;11.12;;;4.00;99.90;;;;;;464563;256;27519;-73
2021/04/20 00:35:00;;;;;;;16.00;11.52;;;3.90;99.90;;;;;;464702;256;27578;-74
2021/04/20 00:37:01;;;;;;;15.45;12.15;;;3.90;99.90;;;;;;464650;256;27540;-73
2021/04/20 00:39:02;;;;;;;16.20;12.88;;;3.90;99.90;;;;;;464561;256;27482;-73
2021/04/20 00:41:03;;;;;;;15.60;12.37;;;3.80;99.90;;;;;;464589;256;27427;-73
2021/04/20 00:43:05;;;;;;;15.88;11.70;;;3.80;99.90;;;;;;464586;256;28033;-76
2021/04/20 00:45:06;;;;;;;18.60;13.05;;;3.80;99.90;;;;;;464644;256;27539;-73
2021/04/20 00:47:07;;;;;;;15.10;11.73;;;3.70;99.90;;;;;;464592;256;27427;-72
2021/04/20 00:49:08;;;;;;;16.92;11.80;;;3.80;99.90;;;;;;464592;256;27539;-72
2021/04/20 00:51:10;;;;;;;15.75;11.60;;;3.70;99.90;;;;;;464653;256;27429;-72
2021/04/20 00:53:11;;;;;;;16.20;12.57;;;3.70;99.90;;;;;;464591;256;27463;-73
2021/04/20 00:55:12;;;;;;;18.12;12.35;;;3.70;99.90;;;;;;464672;256;27942;-73
2021/04/20 00:57:13;;;;;;;20.48;15.02;;;3.70;99.90;;;;;;464688;256;27936;-73
2021/04/20 00:59:15;;;;;;;20.33;15.00;;;3.60;99.90;;;;;;464690;256;27523;-72
2021/04/20 01:01:16;;;;;;;17.95;13.75;;;3.50;99.90;;;;;;464601;256;27511;-72
2021/04/20 01:03:17;;;;;;;18.75;13.82;;;3.60;99.90;;;;;;464599;256;27562;-72
2021/04/20 01:05:19;;;;;;;17.27;12.93;;;3.60;99.90;;;;;;464595;256;28013;-73
2021/04/20 01:07:20;;;;;;;14.80;11.20;;;3.50;99.90;;;;;;464590;256;27874;-72
2021/04/20 01:09:21;;;;;;;15.38;12.02;;;3.60;99.90;;;;;;464612;256;27545;-73
2021/04/20 01:11:22;;;;;;;18.37;13.50;;;3.60;99.90;;;;;;464595;256;27521;-72
2021/04/20 01:13:24;;;;;;;17.95;13.15;;;3.60;99.90;;;;;;464581;256;27467;-72
2021/04/20 01:15:25;;;;;;;13.35;10.50;;;3.50;99.90;;;;;;464604;256;27545;-72
2021/04/20 01:17:26;;;;;;;15.07;11.93;;;3.50;99.90;;;;;;464588;256;27909;-73
2021/04/20 01:19:27;;;;;;;15.98;12.05;;;3.50;99.90;;;;;;464580;256;27964;-72
2021/04/20 01:21:29;;;;;;;16.62;13.00;;;3.50;99.90;;;;;;464592;256;27475;-72
2021/04/20 01:23:30;;;;;;;15.95;13.00;;;3.50;99.90;;;;;;464601;256;27458;-73
2021/04/20 01:25:31;;;;;;;17.85;13.43;;;3.40;99.90;;;;;;464584;256;27523;-73
2021/04/20 01:27:32;;;;;;;19.75;14.55;;;3.40;99.90;;;;;;464576;256;27486;-73
2021/04/20 01:29:34;;;;;;;16.92;12.98;;;3.30;99.90;;;;;;464598;256;27479;-73
2021/04/20 01:31:35;;;;;;;22.05;14.15;;;3.30;99.90;;;;;;464596;256;27875;-73
2021/04/20 01:33:36;;;;;;;16.83;12.30;;;3.30;99.90;;;;;;467230;253;27927;-72
2021/04/20 01:35:37;;;;;;;19.48;14.68;;;3.40;99.90;;;;;;469302;253;27523;-72
2021/04/20 01:37:39;;;;;;;18.33;12.82;;;3.30;99.90;;;;;;469274;253;27416;-72
2021/04/20 01:39:40;;;;;;;17.55;13.57;;;3.30;99.90;;;;;;469319;253;27416;-72
2021/04/20 01:41:41;;;;;;;18.50;13.07;;;3.30;99.90;;;;;;469309;253;27442;-72
2021/04/20 01:43:42;;;;;;;19.10;14.38;;;3.30;99.90;;;;;;469295;253;27591;-72
2021/04/20 01:45:44;;;;;;;18.98;13.88;;;3.30;99.90;;;;;;469228;253;27927;-73
2021/04/20 01:47:45;;;;;;;17.95;13.70;;;3.20;99.90;;;;;;469219;253;27971;-72
2021/04/20 01:49:46;;;;;;;18.90;13.68;;;3.30;99.90;;;;;;469229;253;27468;-72
2021/04/20 01:51:47;;;;;;;19.27;14.07;;;3.20;99.90;;;;;;469234;253;27420;-72
2021/04/20 01:53:49;;;;;;;18.58;14.18;;;3.20;99.90;;;;;;469240;253;27539;-72
2021/04/20 01:55:50;;;;;;;18.77;13.95;;;3.20;99.90;;;;;;469236;253;27900;-73
2021/04/20 01:57:51;;;;;;;17.85;13.40;;;3.20;99.90;;;;;;469220;253;27511;-73
2021/04/20 01:59:52;;;;;;;19.90;13.80;;;3.20;99.90;;;;;;469203;253;27976;-73
2021/04/20 02:01:54;;;;;;;21.20;15.07;;;3.10;99.90;;;;;;469223;253;27879;-75
2021/04/20 02:03:55;;;;;;;19.70;13.88;;;3.10;99.90;;;;;;469233;253;27459;-71
2021/04/20 02:05:56;;;;;;;19.70;14.95;;;3.10;99.90;;;;;;469292;253;27411;-73
2021/04/20 02:07:58;;;;;;;20.30;14.68;;;3.10;99.90;;;;;;469254;253;27420;-72
2021/04/20 02:09:59;;;;;;;19.33;14.00;;;3.00;99.90;;;;;;469253;253;27483;-72
2021/04/20 02:12:00;;;;;;;22.10;15.77;;;3.00;99.90;;;;;;469243;253;27426;-72
2021/04/20 02:14:01;;;;;;;22.30;15.23;;;3.10;99.90;;;;;;469283;253;27467;-73
2021/04/20 02:16:03;;;;;;;23.15;16.20;;;3.10;99.90;;;;;;469313;253;28159;-73
2021/04/20 02:18:04;;;;;;;16.75;11.82;;;3.10;99.90;;;;;;469236;253;27874;-72
2021/04/20 02:20:05;;;;;;;18.27;13.55;;;3.00;99.90;;;;;;469229;253;27458;-72
2021/04/20 02:22:06;;;;;;;21.87;14.68;;;2.90;99.90;;;;;;469240;253;27435;-71
2021/04/20 02:24:08;;;;;;;23.00;16.37;;;2.90;99.90;;;;;;469273;253;27456;-72
2021/04/20 02:26:09;;;;;;;20.50;14.75;;;2.90;99.90;;;;;;469210;253;27812;-73
2021/04/20 02:28:10;;;;;;;22.80;16.27;;;2.90;99.90;;;;;;469227;253;27433;-72
2021/04/20 02:30:11;;;;;;;22.90;16.37;;;2.90;99.90;;;;;;469270;253;27941;-73
2021/04/20 02:32:13;;;;;;;22.83;15.38;;;2.90;99.90;;;;;;469213;253;27953;-72
2021/04/20 02:34:14;;;;;;;20.55;14.57;;;2.80;99.90;;;;;;469205;253;27448;-72
2021/04/20 02:36:15;;;;;;;22.77;15.02;;;2.80;99.90;;;;;;469214;253;27448;-72
2021/04/20 02:38:16;;;;;;;24.17;16.12;;;2.80;99.90;;;;;;469217;253;27496;-72
2021/04/20 02:40:18;;;;;;;26.10;17.73;;;2.80;99.90;;;;;;469190;253;27476;-72
2021/04/20 02:42:19;;;;;;;24.00;15.68;;;2.80;99.90;;;;;;469203;253;27499;-72
2021/04/20 02:44:20;;;;;;;20.35;14.65;;;2.80;99.90;;;;;;469200;253;27431;-72
2021/04/20 02:46:21;;;;;;;22.85;14.55;;;2.70;99.90;;;;;;469194;253;28095;-71
2021/04/20 02:48:23;;;;;;;24.35;15.93;;;2.70;99.90;;;;;;469210;253;28049;-72
2021/04/20 02:50:24;;;;;;;21.20;15.40;;;2.70;99.90;;;;;;469206;253;27455;-72
2021/04/20 02:52:25;;;;;;;18.33;13.85;;;2.70;99.90;;;;;;469219;253;27519;-72
2021/04/20 02:54:26;;;;;;;24.15;16.70;;;2.70;99.90;;;;;;469209;253;27471;-72
2021/04/20 02:56:28;;;;;;;26.73;17.67;;;2.70;99.90;;;;;;469210;253;27525;-72
2021/04/20 02:58:29;;;;;;;28.10;18.73;;;2.70;99.90;;;;;;469214;253;27428;-72
2021/04/20 03:00:30;;;;;;;25.40;17.83;;;2.60;99.90;;;;;;469232;253;27911;-72
2021/04/20 03:02:31;;;;;;;37.30;21.50;;;2.60;99.90;;;;;;469219;253;28014;-72
2021/04/20 03:04:34;;;;;;;29.65;20.08;;;2.50;99.90;;;;;;469215;253;27579;-71
2021/04/20 03:06:34;;;;;;;25.52;16.73;;;2.40;99.90;;;;;;469193;253;27439;-72
2021/04/20 03:08:35;;;;;;;27.23;18.65;;;2.40;99.90;;;;;;469188;253;27417;-72
2021/04/20 03:10:36;;;;;;;24.70;17.50;;;2.50;99.90;;;;;;469278;253;27578;-73
2021/04/20 03:12:38;;;;;;;27.75;18.12;;;2.50;99.90;;;;;;469277;253;27834;-72
2021/04/20 03:14:39;;;;;;;28.92;20.37;;;2.60;99.90;;;;;;469294;253;27459;-72
2021/04/20 03:16:40;;;;;;;29.23;19.40;;;2.70;99.90;;;;;;469206;253;28804;-72
2021/04/20 03:18:41;;;;;;;31.67;20.62;;;2.80;99.90;;;;;;469205;253;27887;-72
2021/04/20 03:20:43;;;;;;;33.47;21.45;;;2.80;99.90;;;;;;469229;253;27463;-72
2021/04/20 03:22:44;;;;;;;34.88;22.92;;;2.80;99.90;;;;;;469237;253;27413;-72
2021/04/20 03:24:45;;;;;;;39.13;25.00;;;2.80;99.90;;;;;;469241;253;27456;-73
2021/04/20 03:26:47;;;;;;;34.58;24.10;;;2.80;99.90;;;;;;469244;253;27433;-72
2021/04/20 03:28:48;;;;;;;39.90;23.20;;;2.70;99.90;;;;;;469215;253;27453;-72
2021/04/20 03:30:51;;;;;;;35.30;22.27;;;2.70;99.90;;;;;;469226;253;27535;-72
2021/04/20 03:32:50;;;;;;;31.35;20.85;;;2.70;99.90;;;;;;469187;253;27884;-72
2021/04/20 03:34:52;;;;;;;31.42;20.00;;;2.60;99.90;;;;;;469258;252;27948;-72
2021/04/20 03:36:53;;;;;;;31.55;20.17;;;2.60;99.90;;;;;;469218;253;27536;-72
2021/04/20 03:38:54;;;;;;;28.27;19.75;;;2.50;99.90;;;;;;469172;253;27471;-72
2021/04/20 03:40:55;;;;;;;30.52;18.90;;;2.50;99.90;;;;;;469212;253;27544;-74
2021/04/20 03:42:57;;;;;;;25.50;16.65;;;2.40;99.90;;;;;;469197;253;27503;-72
2021/04/20 03:44:58;;;;;;;28.80;18.92;;;2.30;99.90;;;;;;469225;253;27455;-72
2021/04/20 03:46:59;;;;;;;35.13;21.58;;;2.30;99.90;;;;;;469228;253;27878;-72
2021/04/20 03:49:00;;;;;;;31.67;20.30;;;2.30;99.90;;;;;;469232;253;27891;-72
2021/04/20 03:51:03;;;;;;;31.92;19.40;;;2.30;99.90;;;;;;469238;253;27463;-73
2021/04/20 03:53:05;;;;;;;29.58;18.83;;;2.30;99.90;;;;;;469210;253;27511;-71
2021/04/20 03:55:06;;;;;;;33.45;21.80;;;2.30;99.90;;;;;;469225;253;27517;-73
2021/04/20 03:57:07;;;;;;;33.72;21.60;;;2.20;99.90;;;;;;469227;253;27957;-72
2021/04/20 03:59:08;;;;;;;30.23;18.55;;;2.30;99.90;;;;;;469212;253;27932;-72
2021/04/20 04:01:10;;;;;;;28.02;18.60;;;2.20;99.90;;;;;;469238;253;27412;-71
2021/04/20 04:03:11;;;;;;;33.80;22.55;;;2.20;99.90;;;;;;469308;253;27493;-72
2021/04/20 04:05:12;;;;;;;29.87;19.05;;;2.30;99.90;;;;;;469307;253;27540;-73
2021/04/20 04:07:13;;;;;;;32.28;21.17;;;2.20;99.90;;;;;;469364;252;27409;-71
2021/04/20 04:09:15;;;;;;;32.95;20.48;;;2.30;99.90;;;;;;469315;253;27511;-72
2021/04/20 04:11:16;;;;;;;32.95;21.75;;;2.30;99.90;;;;;;469286;253;27534;-72
2021/04/20 04:13:17;;;;;;;32.05;20.88;;;2.30;99.90;;;;;;469260;253;28046;-72
2021/04/20 04:15:18;;;;;;;30.77;19.25;;;2.30;99.90;;;;;;469302;253;28118;-72
2021/04/20 04:17:20;;;;;;;29.30;20.05;;;2.30;99.90;;;;;;469247;253;27484;-72
2021/04/20 04:19:21;;;;;;;31.23;19.92;;;2.30;99.90;;;;;;468962;253;27471;-72
2021/04/20 04:21:22;;;;;;;32.38;21.45;;;2.20;99.90;;;;;;469233;253;27419;-72
2021/04/20 04:23:23;;;;;;;30.73;21.05;;;2.10;99.90;;;;;;469093;253;27451;-72
2021/04/20 04:25:25;;;;;;;29.10;19.75;;;2.10;99.90;;;;;;469306;253;27586;-73
2021/04/20 04:27:26;;;;;;;31.65;20.10;;;2.10;99.90;;;;;;469266;253;27428;-72
2021/04/20 04:29:27;;;;;;;39.63;22.25;;;2.10;99.90;;;;;;469267;253;27955;-74
2021/04/20 04:31:29;;;;;;;35.10;22.48;;;2.00;99.90;;;;;;469275;253;29110;-71
2021/04/20 04:33:30;;;;;;;37.90;23.25;;;2.00;99.90;;;;;;469296;253;27531;-72
2021/04/20 04:35:31;;;;;;;33.53;21.80;;;2.00;99.90;;;;;;469338;253;27584;-73
2021/04/20 04:37:32;;;;;;;35.83;23.08;;;2.00;99.90;;;;;;469347;253;27461;-72
2021/04/20 04:39:33;;;;;;;34.85;21.25;;;2.00;99.90;;;;;;469278;253;27492;-72
2021/04/20 04:41:35;;;;;;;42.15;25.25;;;2.00;99.90;;;;;;469246;253;27531;-72
2021/04/20 04:43:36;;;;;;;38.85;24.10;;;2.00;99.90;;;;;;469243;253;27911;-72
2021/04/20 04:45:37;;;;;;;45.17;25.95;;;2.00;99.90;;;;;;469260;253;27927;-73
2021/04/20 04:47:38;;;;;;;35.15;23.45;;;2.00;99.90;;;;;;469255;253;27541;-71
2021/04/20 04:49:40;;;;;;;38.33;24.35;;;2.10;99.90;;;;;;469248;253;27523;-72
2021/04/20 04:51:41;;;;;;;38.15;23.45;;;2.10;99.90;;;;;;469244;253;27433;-72
2021/04/20 04:53:43;;;;;;;35.10;22.35;;;2.10;99.90;;;;;;469248;253;27460;-72
2021/04/20 04:55:43;;;;;;;34.65;21.90;;;2.20;99.90;;;;;;469149;253;27474;-72
2021/04/20 04:57:45;;;;;;;36.05;22.17;;;2.20;99.90;;;;;;469249;253;27428;-72
2021/04/20 04:59:46;;;;;;;32.47;20.12;;;2.20;99.90;;;;;;469225;253;28109;-72
2021/04/20 05:01:47;;;;;;;35.03;21.87;;;2.20;99.90;;;;;;469233;253;27946;-72
2021/04/20 05:03:49;;;;;;;33.55;22.20;;;2.20;99.90;;;;;;469264;253;27587;-72
2021/04/20 05:05:50;;;;;;;33.53;21.08;;;2.30;99.90;;;;;;469237;253;27510;-74
2021/04/20 05:07:51;;;;;;;29.40;20.92;;;2.30;99.90;;;;;;469293;253;27500;-72
2021/04/20 05:09:52;;;;;;;37.85;23.80;;;2.30;99.90;;;;;;469276;253;27470;-73
2021/04/20 05:11:54;;;;;;;38.63;25.15;;;2.30;99.90;;;;;;469284;253;27558;-72
2021/04/20 05:13:55;;;;;;;37.53;24.15;;;2.30;99.90;;;;;;469258;253;27595;-74
2021/04/20 05:15:56;;;;;;;40.58;24.12;;;2.40;99.90;;;;;;469291;253;28094;-73
2021/04/20 05:17:57;;;;;;;45.75;25.98;;;2.40;99.90;;;;;;469278;253;27872;-72
2021/04/20 05:19:59;;;;;;;36.30;22.65;;;2.40;99.90;;;;;;469249;253;27455;-73
2021/04/20 05:22:00;;;;;;;40.65;25.92;;;2.50;99.90;;;;;;469247;253;27520;-72
2021/04/20 05:24:01;;;;;;;39.55;24.90;;;2.50;99.90;;;;;;469257;253;27540;-73
2021/04/20 05:26:02;;;;;;;36.97;22.77;;;2.50;99.90;;;;;;469214;253;27516;-72
2021/04/20 05:28:04;;;;;;;32.35;22.25;;;2.60;99.90;;;;;;469232;253;27460;-73
2021/04/20 05:30:05;;;;;;;37.30;23.67;;;2.60;99.90;;;;;;469230;253;28006;-72
2021/04/20 05:32:06;;;;;;;33.80;22.35;;;2.60;99.90;;;;;;469230;253;27920;-72
2021/04/20 05:34:07;;;;;;;31.37;21.73;;;2.60;99.90;;;;;;469224;253;27455;-72
2021/04/20 05:36:09;;;;;;;30.42;20.02;;;2.70;99.90;;;;;;469268;253;27468;-73
2021/04/20 05:38:10;;;;;;;35.53;23.25;;;2.70;99.90;;;;;;469295;253;27425;-72
2021/04/20 05:40:11;;;;;;;39.22;25.50;;;2.80;99.90;;;;;;469256;253;27474;-73
2021/04/20 05:42:12;;;;;;;39.97;24.02;;;2.80;99.90;;;;;;469302;253;27420;-74
2021/04/20 05:44:14;;;;;;;35.20;23.23;;;2.80;99.90;;;;;;469290;253;27461;-72
2021/04/20 05:46:15;;;;;;;43.58;25.95;;;2.90;99.90;;;;;;469303;253;28736;-72
2021/04/20 05:48:16;;;;;;;41.90;26.15;;;2.90;99.90;;;;;;469274;253;27920;-72
2021/04/20 05:50:17;;;;;;;37.13;23.80;;;2.90;99.90;;;;;;469239;253;27547;-74
2021/04/20 05:52:19;;;;;;;34.03;24.02;;;3.00;99.90;;;;;;469250;253;27427;-72
2021/04/20 05:54:20;;;;;;;33.45;22.15;;;3.00;99.90;;;;;;469249;253;27459;-73
2021/04/20 05:56:21;;;;;;;35.45;23.27;;;3.10;99.90;;;;;;469213;253;27515;-72
2021/04/20 05:58:22;;;;;;;36.65;23.92;;;3.10;99.90;;;;;;469289;253;27437;-72
2021/04/20 06:00:24;;;;;;;32.90;21.33;;;3.20;99.90;;;;;;469224;253;27490;-73
2021/04/20 06:02:25;;;;;;;32.58;20.35;;;3.20;99.90;;;;;;469288;253;27880;-72
2021/04/20 06:04:26;;;;;;;31.00;21.75;;;3.30;99.90;;;;;;469292;253;27949;-73
2021/04/20 06:06:27;;;;;;;35.55;23.87;;;3.30;99.90;;;;;;469311;253;27412;-72
2021/04/20 06:08:29;;;;;;;32.80;22.77;;;3.30;99.90;;;;;;469224;253;27419;-72
2021/04/20 06:10:31;;;;;;;35.65;23.80;;;3.30;99.90;;;;;;469237;253;27547;-73
2021/04/20 06:12:31;;;;;;;36.90;24.12;;;3.40;99.90;;;;;;469225;253;27424;-72
2021/04/20 06:14:32;;;;;;;34.47;21.30;;;3.50;99.90;;;;;;469275;253;27583;-72
2021/04/20 06:16:34;;;;;;;33.25;22.80;;;3.60;99.90;;;;;;469276;253;27912;-72
2021/04/20 06:18:35;;;;;;;31.45;22.10;;;3.60;99.90;;;;;;469293;253;27978;-73
2021/04/20 06:20:36;;;;;;;30.15;21.23;;;3.70;99.90;;;;;;469201;253;27492;-74
2021/04/20 06:22:38;;;;;;;34.20;22.75;;;3.80;99.90;;;;;;469191;253;27408;-72
2021/04/20 06:24:39;;;;;;;33.03;22.67;;;3.90;99.90;;;;;;469162;253;27451;-73
2021/04/20 06:26:41;;;;;;;31.80;21.87;;;3.90;99.90;;;;;;469140;253;27523;-73
2021/04/20 06:28:41;;;;;;;31.80;21.45;;;4.00;99.90;;;;;;469139;253;27451;-72
2021/04/20 06:30:43;;;;;;;31.67;21.23;;;4.10;99.90;;;;;;469143;253;28041;-73
2021/04/20 06:32:44;;;;;;;30.48;20.48;;;4.20;99.90;;;;;;469222;253;27926;-73
2021/04/20 06:34:45;;;;;;;32.53;22.67;;;4.20;99.90;;;;;;469212;253;27579;-73
2021/04/20 06:36:46;;;;;;;31.42;21.80;;;4.30;99.90;;;;;;469173;253;27416;-72
2021/04/20 06:38:48;;;;;;;30.67;21.52;;;4.40;99.90;;;;;;469097;253;27456;-70
2021/04/20 06:40:49;;;;;;;28.85;21.17;;;4.50;99.90;;;;;;469196;253;27468;-72
2021/04/20 06:42:50;;;;;;;31.48;22.05;;;4.60;99.90;;;;;;469230;253;27914;-71
2021/04/20 06:44:52;;;;;;;35.20;23.12;;;4.70;99.90;;;;;;469238;253;27539;-72
2021/04/20 06:46:53;;;;;;;32.35;21.33;;;4.80;99.90;;;;;;469253;253;27489;-71
2021/04/20 06:48:54;;;;;;;36.88;25.27;;;4.80;99.90;;;;;;469252;253;27468;-71
2021/04/20 06:50:55;;;;;;;34.95;21.80;;;4.90;99.90;;;;;;469274;253;27539;-72
2021/04/20 06:52:56;;;;;;;32.22;22.67;;;4.90;99.90;;;;;;469293;253;27910;-71
2021/04/20 06:54:58;;;;;;;31.62;22.20;;;5.00;99.90;;;;;;469278;253;27941;-72
2021/04/20 06:56:59;;;;;;;31.85;22.25;;;5.10;99.90;;;;;;469442;252;27627;-71
2021/04/20 06:59:00;;;;;;;32.58;22.00;;;5.20;99.90;;;;;;460396;258;27651;-72
2021/04/20 07:01:01;;;;;;;31.83;20.95;;;5.20;99.90;;;;;;460441;258;27595;-72
2021/04/20 07:03:03;;;;;;;34.53;20.88;;;5.30;99.90;;;;;;460443;258;27984;-71
2021/04/20 07:05:04;;;;;;;37.63;22.50;;;5.40;99.90;;;;;;460458;258;28160;-71
2021/04/20 07:07:05;;;;;;;33.92;22.30;;;5.50;99.90;;;;;;460479;258;27529;-72
2021/04/20 07:09:07;;;;;;;38.47;23.70;;;5.60;99.90;;;;;;460330;258;27528;-71
2021/04/20 07:11:08;;;;;;;36.72;24.08;;;5.70;99.90;;;;;;460474;258;27753;-71
2021/04/20 07:13:09;;;;;;;32.72;22.35;;;5.80;99.90;;;;;;460403;258;28454;-71
2021/04/20 07:15:10;;;;;;;35.38;22.80;;;5.80;99.90;;;;;;460473;258;28166;-71
2021/04/20 07:17:12;;;;;;;32.70;21.55;;;5.90;99.90;;;;;;460453;258;27546;-71
2021/04/20 07:19:13;;;;;;;33.17;23.27;;;6.00;99.90;;;;;;460416;258;27671;-71
2021/04/20 07:21:14;;;;;;;45.05;26.20;;;6.10;99.90;;;;;;460474;258;28983;-72
2021/04/20 07:23:15;;;;;;;40.38;26.37;;;6.20;99.90;;;;;;460529;258;27988;-72
2021/04/20 07:25:17;;;;;;;36.92;25.58;;;6.30;99.90;;;;;;460546;258;28062;-71
2021/04/20 07:27:18;;;;;;;35.83;24.07;;;6.50;99.90;;;;;;460537;258;27556;-71
2021/04/20 07:29:19;;;;;;;31.10;20.63;;;6.60;99.90;;;;;;460478;258;28751;-71
2021/04/20 07:31:20;;;;;;;36.70;26.13;;;6.70;99.90;;;;;;460528;258;28094;-72
2021/04/20 07:33:22;;;;;;;35.13;24.60;;;7.00;99.90;;;;;;460521;258;27994;-71
2021/04/20 07:35:23;;;;;;;42.67;27.30;;;7.30;99.90;;;;;;460543;258;28064;-72
2021/04/20 07:37:24;;;;;;;40.43;26.60;;;7.40;99.90;;;;;;460149;258;29014;-72
2021/04/20 07:39:25;;;;;;;39.00;28.10;;;7.60;99.90;;;;;;460395;258;28840;-72
2021/04/20 07:41:27;;;;;;;36.00;25.60;;;7.90;99.90;;;;;;460463;258;28519;-72
2021/04/20 07:43:28;;;;;;;42.23;29.00;;;8.30;99.90;;;;;;460529;258;27527;-72
2021/04/20 07:45:29;;;;;;;35.47;26.93;;;8.50;99.90;;;;;;460517;258;27804;-72
2021/04/20 07:47:30;;;;;;;39.10;28.27;;;8.60;99.90;;;;;;460542;258;28023;-72
2021/04/20 07:49:32;;;;;;;30.13;23.17;;;8.70;99.90;;;;;;460531;258;28022;-71
2021/04/20 07:51:33;;;;;;;31.80;22.90;;;8.80;99.90;;;;;;460528;258;28079;-73
2021/04/20 07:53:35;;;;;;;28.40;21.40;;;8.90;99.90;;;;;;460533;258;27952;-71
2021/04/20 07:55:35;;;;;;;28.63;20.60;;;8.90;99.90;;;;;;460536;258;28184;-72
2021/04/20 07:57:37;;;;;;;30.10;21.93;;;9.00;99.90;;;;;;460532;258;28574;-72
2021/04/20 07:59:38;;;;;;;33.37;23.47;;;9.10;99.90;;;;;;460547;258;28322;-72
2021/04/20 08:01:41;;;;;;;30.60;21.60;;;9.30;99.90;;;;;;460482;258;28096;-73
2021/04/20 08:03:41;;;;;;;26.93;19.77;;;9.30;99.90;;;;;;460414;258;28117;-72
2021/04/20 08:05:42;;;;;;;30.07;21.17;;;9.40;99.90;;;;;;460539;258;28015;-72
2021/04/20 08:07:43;;;;;;;25.47;19.80;;;9.40;99.90;;;;;;460535;258;27897;-72
2021/04/20 08:09:44;;;;;;;25.40;18.60;;;9.50;99.90;;;;;;460546;258;28247;-72
2021/04/20 08:11:46;;;;;;;23.70;17.17;;;9.50;99.90;;;;;;460576;258;28044;-73
2021/04/20 08:13:47;;;;;;;22.93;17.27;;;9.50;99.90;;;;;;460568;258;28576;-72
2021/04/20 08:15:48;;;;;;;33.17;21.17;;;9.60;99.90;;;;;;460556;258;28197;-72
2021/04/20 08:17:50;;;;;;;23.90;18.27;;;9.70;99.90;;;;;;460416;258;27740;-72
2021/04/20 08:19:51;;;;;;;25.30;17.80;;;9.70;99.90;;;;;;459945;258;28155;-71
2021/04/20 08:21:52;;;;;;;26.90;20.23;;;9.70;99.90;;;;;;460220;258;28136;-72
2021/04/20 08:23:53;;;;;;;26.10;16.90;;;9.90;99.90;;;;;;460413;258;28119;-71
2021/04/20 08:25:54;;;;;;;26.33;18.50;;;10.00;99.90;;;;;;460439;258;28068;-72
2021/04/20 08:27:57;;;;;;;21.83;16.17;;;9.90;99.90;;;;;;469075;253;28025;-71
2021/04/20 08:29:57;;;;;;;22.37;16.70;;;9.80;99.90;;;;;;469157;253;27922;-71
2021/04/20 08:31:58;;;;;;;23.77;17.93;;;9.80;99.90;;;;;;469272;253;28433;-73
2021/04/20 08:33:59;;;;;;;20.17;15.27;;;10.10;99.90;;;;;;469270;253;28417;-71
2021/04/20 08:36:01;;;;;;;21.67;15.57;;;10.10;99.90;;;;;;469250;253;27934;-72
2021/04/20 08:38:02;;;;;;;23.00;16.20;;;10.10;99.90;;;;;;469295;253;27934;-71
2021/04/20 08:40:03;;;;;;;21.00;14.13;;;10.20;99.90;;;;;;469237;253;27960;-71
2021/04/20 08:42:04;;;;;;;18.47;14.10;;;10.30;99.90;;;;;;469259;253;27922;-73
2021/04/20 08:44:06;;;;;;;25.43;15.37;;;10.40;99.90;;;;;;469329;253;27931;-72
2021/04/20 08:46:07;;;;;;;17.47;13.40;;;10.40;99.90;;;;;;469307;253;28818;-72
2021/04/20 08:48:08;;;;;;;16.83;13.30;;;10.50;99.90;;;;;;469277;253;28484;-71
2021/04/20 08:50:09;;;;;;;17.33;13.03;;;10.30;99.90;;;;;;469261;253;27960;-71
2021/04/20 08:52:11;;;;;;;17.57;12.97;;;10.50;99.90;;;;;;469267;253;27965;-72
2021/04/20 08:54:12;;;;;;;18.03;13.33;;;10.80;99.90;;;;;;469166;253;28022;-72
2021/04/20 08:56:13;;;;;;;18.07;14.00;;;11.00;99.90;;;;;;469303;253;28392;-71
2021/04/20 08:58:14;;;;;;;16.17;12.53;;;11.30;99.90;;;;;;469260;253;28521;-72
2021/04/20 09:00:16;;;;;;;17.57;12.87;;;11.40;99.90;;;;;;469255;253;28665;-72
2021/04/20 09:02:17;;;;;;;18.40;13.20;;;11.40;99.90;;;;;;469208;253;28586;-74
2021/04/20 09:04:18;;;;;;;18.73;13.60;;;11.40;99.90;;;;;;469259;253;28385;-72
2021/04/20 09:06:19;;;;;;;14.87;12.10;;;11.50;99.90;;;;;;469289;253;28409;-72
2021/04/20 09:08:21;;;;;;;15.70;13.17;;;11.70;99.90;;;;;;469286;253;28435;-72
2021/04/20 09:10:22;;;;;;;12.20;9.97;;;11.80;99.90;;;;;;469294;253;28433;-72
2021/04/20 09:12:23;;;;;;;17.40;12.77;;;11.70;99.90;;;;;;469242;253;28872;-72
2021/04/20 09:14:25;;;;;;;19.40;14.60;;;11.90;99.90;;;;;;469290;253;28689;-72
2021/04/20 09:16:26;;;;;;;17.27;12.30;;;12.00;99.90;;;;;;469190;253;28888;-72
2021/04/20 09:18:27;;;;;;;16.03;11.60;;;11.90;99.90;;;;;;469220;253;28290;-72
2021/04/20 09:20:28;;;;;;;16.90;13.40;;;12.00;99.90;;;;;;468885;253;28295;-72
2021/04/20 09:22:30;;;;;;;13.67;10.97;;;12.10;99.90;;;;;;469217;253;28202;-72
2021/04/20 09:24:34;;;;;;;19.17;13.83;;;12.10;99.90;;;;;;469252;253;28882;-72
2021/04/20 09:26:32;;;;;;;16.70;13.50;;;12.10;99.90;;;;;;469074;253;28854;-72
2021/04/20 09:28:33;;;;;;;15.03;12.10;;;12.10;99.90;;;;;;469280;253;28666;-72
2021/04/20 09:30:35;;;;;;;13.37;10.90;;;12.10;99.90;;;;;;469261;253;28902;-72
2021/04/20 09:32:36;;;;;;;20.60;13.00;;;12.30;99.90;;;;;;469226;253;28331;-72
2021/04/20 09:34:37;;;;;;;14.57;10.53;;;12.30;99.90;;;;;;469254;253;28251;-72
2021/04/20 09:36:38;;;;;;;15.57;12.60;;;12.30;99.90;;;;;;469239;253;28161;-72
2021/04/20 09:38:40;;;;;;;18.30;13.93;;;12.70;99.90;;;;;;469227;253;28406;-72
2021/04/20 09:40:41;;;;;;;20.67;13.67;;;12.70;99.90;;;;;;469206;253;28131;-72
2021/04/20 09:42:42;;;;;;;17.73;12.70;;;12.50;99.90;;;;;;469229;253;29053;-72
2021/04/20 09:44:43;;;;;;;14.67;12.10;;;12.50;99.90;;;;;;469246;253;28993;-72
2021/04/20 09:46:45;;;;;;;15.80;11.67;;;12.60;99.90;;;;;;469241;253;28501;-72
2021/04/20 09:48:46;;;;;;;13.30;10.90;;;12.60;99.90;;;;;;469191;253;28387;-72
2021/04/20 09:50:47;;;;;;;15.63;11.70;;;12.80;99.90;;;;;;469224;253;28542;-72
2021/04/20 09:52:48;;;;;;;15.60;11.80;;;13.00;99.90;;;;;;469205;253;28288;-72
2021/04/20 09:54:50;;;;;;;12.43;10.60;;;13.10;99.90;;;;;;469206;253;28579;-71
2021/04/20 09:56:51;;;;;;;12.17;10.37;;;12.80;99.90;;;;;;469183;253;29401;-72
2021/04/20 09:58:52;;;;;;;13.53;10.03;;;12.80;99.90;;;;;;469185;253;29040;-71
2021/04/20 10:00:53;;;;;;;11.77;10.17;;;12.70;99.90;;;;;;469199;253;28576;-72
2021/04/20 10:02:55;;;;;;;14.20;10.80;;;12.80;99.90;;;;;;469215;253;28600;-71
2021/04/20 10:04:56;;;;;;;13.43;10.10;;;12.80;99.90;;;;;;469233;253;28495;-71
2021/04/20 10:06:57;;;;;;;13.23;10.47;;;13.00;99.90;;;;;;470085;252;28575;-72
2021/04/20 10:08:58;;;;;;;11.40;9.20;;;12.80;99.90;;;;;;460473;258;28593;-71
2021/04/20 10:11:03;;;;;;;16.93;10.37;;;12.90;99.90;;;;;;460460;258;28957;-72
2021/04/20 10:13:01;;;;;;;14.07;11.23;;;13.00;99.90;;;;;;460232;258;28561;-71
2021/04/20 10:15:02;;;;;;;12.70;10.40;;;13.00;99.90;;;;;;460472;258;28679;-72
2021/04/20 10:17:04;;;;;;;11.53;9.60;;;13.20;99.90;;;;;;460430;258;28645;-72
2021/04/20 10:19:05;;;;;;;16.07;11.27;;;13.20;99.90;;;;;;460464;258;28416;-71
2021/04/20 10:21:06;;;;;;;11.73;9.87;;;13.20;99.90;;;;;;460436;258;28735;-72